TimeCST,TemperatureF,Dew PointF,Humidity,Sea Level PressureIn,VisibilityMPH,Wind Direction,Wind SpeedMPH,Gust SpeedMPH,PrecipitationIn,Events,Conditions,WindDirDegrees,DateUTC
12:15 AM,28.4,21.2,74,30.23,10.0,Calm,Calm,-,N/A,,Clear,0,2012-11-29 06:15:00
12:35 AM,28.4,21.2,74,30.22,10.0,South,3.5,-,N/A,,Clear,170,2012-11-29 06:35:00
12:55 AM,28.4,23.0,80,30.22,10.0,Calm,Calm,-,N/A,,Clear,0,2012-11-29 06:55:00
1:15 AM,24.8,19.4,80,30.21,10.0,Calm,Calm,-,N/A,,Clear,0,2012-11-29 07:15:00
1:35 AM,24.8,17.6,74,30.21,10.0,Calm,Calm,-,N/A,,Clear,0,2012-11-29 07:35:00
1:55 AM,23.0,17.6,80,30.22,7.0,Calm,Calm,-,N/A,,Clear,0,2012-11-29 07:55:00
2:15 AM,24.8,19.4,80,30.22,7.0,Calm,Calm,-,N/A,,Clear,0,2012-11-29 08:15:00
2:35 AM,21.2,17.6,86,30.21,7.0,Calm,Calm,-,N/A,,Clear,0,2012-11-29 08:35:00
2:55 AM,24.8,19.4,80,30.21,7.0,Calm,Calm,-,N/A,,Clear,0,2012-11-29 08:55:00
3:15 AM,24.8,19.4,80,30.20,7.0,Calm,Calm,-,N/A,,Clear,0,2012-11-29 09:15:00
3:35 AM,24.8,19.4,80,30.19,7.0,Calm,Calm,-,N/A,,Clear,0,2012-11-29 09:35:00
3:55 AM,21.2,17.6,86,30.20,7.0,Calm,Calm,-,N/A,,Clear,0,2012-11-29 09:55:00
4:15 AM,23.0,17.6,80,30.19,5.0,Calm,Calm,-,N/A,,Haze,0,2012-11-29 10:15:00
4:35 AM,24.8,19.4,80,30.18,5.0,Calm,Calm,-,N/A,,Haze,0,2012-11-29 10:35:00
4:55 AM,23.0,19.4,86,30.18,7.0,Calm,Calm,-,N/A,,Clear,0,2012-11-29 10:55:00
5:15 AM,21.2,17.6,86,30.18,4.0,Calm,Calm,-,N/A,,Haze,0,2012-11-29 11:15:00
5:35 AM,21.2,17.6,86,30.17,7.0,Calm,Calm,-,N/A,,Clear,0,2012-11-29 11:35:00
5:55 AM,21.2,17.6,86,30.17,5.0,Calm,Calm,-,N/A,,Clear,0,2012-11-29 11:55:00
6:15 AM,24.8,19.4,80,30.16,5.0,Calm,Calm,-,N/A,,Haze,0,2012-11-29 12:15:00
6:35 AM,21.2,17.6,86,30.16,4.0,Calm,Calm,-,N/A,,Clear,0,2012-11-29 12:35:00
6:55 AM,21.2,17.6,86,30.16,4.0,Calm,Calm,-,N/A,,Clear,0,2012-11-29 12:55:00
7:15 AM,21.2,17.6,86,30.16,5.0,Calm,Calm,-,N/A,,Clear,0,2012-11-29 13:15:00
7:35 AM,23.0,17.6,80,30.16,5.0,Calm,Calm,-,N/A,,Haze,0,2012-11-29 13:35:00
7:55 AM,23.0,17.6,80,30.16,5.0,Calm,Calm,-,N/A,,Haze,0,2012-11-29 13:55:00
8:15 AM,24.8,19.4,80,30.16,4.0,Calm,Calm,-,N/A,,Haze,0,2012-11-29 14:15:00
8:35 AM,28.4,24.8,86,30.16,4.0,Calm,Calm,-,N/A,,Haze,0,2012-11-29 14:35:00
8:55 AM,32.0,26.6,80,30.15,7.0,Calm,Calm,-,N/A,,Clear,0,2012-11-29 14:55:00
9:15 AM,37.4,28.4,70,30.15,10.0,SSE,3.5,-,N/A,,Clear,160,2012-11-29 15:15:00
9:35 AM,39.2,28.4,65,30.15,10.0,SSE,4.6,-,N/A,,Clear,160,2012-11-29 15:35:00
10:15 AM,44.6,30.2,57,30.14,10.0,SSE,5.8,-,N/A,,Clear,150,2012-11-29 16:15:00
10:35 AM,46.4,30.2,53,30.13,10.0,South,5.8,-,N/A,,Clear,170,2012-11-29 16:35:00
10:55 AM,48.2,30.2,50,30.12,10.0,South,6.9,-,N/A,,Clear,170,2012-11-29 16:55:00
11:15 AM,48.2,30.2,50,30.11,10.0,South,6.9,-,N/A,,Clear,170,2012-11-29 17:15:00
11:55 AM,50.0,30.2,47,30.08,10.0,South,6.9,-,N/A,,Clear,170,2012-11-29 17:55:00
12:15 PM,50.0,30.2,47,30.07,10.0,SE,5.8,-,N/A,,Clear,140,2012-11-29 18:15:00
12:35 PM,51.8,30.2,44,30.06,10.0,SE,6.9,-,N/A,,Clear,130,2012-11-29 18:35:00
12:55 PM,53.6,30.2,41,30.04,10.0,SSE,6.9,-,N/A,,Clear,160,2012-11-29 18:55:00
1:15 PM,53.6,30.2,41,30.03,10.0,South,10.4,-,N/A,,Clear,170,2012-11-29 19:15:00
1:35 PM,55.4,30.2,38,30.02,10.0,South,9.2,-,N/A,,Clear,170,2012-11-29 19:35:00
1:55 PM,55.4,30.2,38,30.01,10.0,SSE,9.2,-,N/A,,Clear,160,2012-11-29 19:55:00
2:15 PM,55.4,30.2,38,30.00,10.0,SSE,6.9,-,N/A,,Clear,150,2012-11-29 20:15:00
2:35 PM,55.4,30.2,38,30.00,10.0,South,10.4,-,N/A,,Clear,170,2012-11-29 20:35:00
2:55 PM,53.6,30.2,41,30.01,10.0,South,13.8,-,N/A,,Clear,190,2012-11-29 20:55:00
3:15 PM,53.6,30.2,41,30.01,10.0,SSW,11.5,-,N/A,,Clear,210,2012-11-29 21:15:00
3:35 PM,51.8,32.0,47,30.01,10.0,SSW,11.5,-,N/A,,Clear,200,2012-11-29 21:35:00
3:55 PM,51.8,32.0,47,30.02,10.0,SSW,8.1,-,N/A,,Clear,210,2012-11-29 21:55:00
4:15 PM,51.8,32.0,47,30.03,10.0,SW,4.6,-,N/A,,Clear,230,2012-11-29 22:15:00
4:35 PM,50.0,32.0,50,30.03,10.0,South,3.5,-,N/A,,Clear,190,2012-11-29 22:35:00
4:55 PM,48.2,32.0,54,30.02,10.0,South,3.5,-,N/A,,Clear,170,2012-11-29 22:55:00
5:15 PM,48.2,32.0,54,30.03,10.0,Calm,Calm,-,N/A,,Clear,0,2012-11-29 23:15:00
5:35 PM,46.4,32.0,57,30.03,10.0,Calm,Calm,-,N/A,,Clear,0,2012-11-29 23:35:00
5:55 PM,41.0,30.2,65,30.03,10.0,Calm,Calm,-,N/A,,Clear,0,2012-11-29 23:55:00
6:15 PM,39.2,30.2,70,30.04,10.0,Calm,Calm,-,N/A,,Clear,0,2012-11-30 00:15:00
6:35 PM,37.4,28.4,70,30.04,10.0,Calm,Calm,-,N/A,,Clear,0,2012-11-30 00:35:00
6:55 PM,39.2,30.2,70,30.04,10.0,Calm,Calm,-,N/A,,Clear,0,2012-11-30 00:55:00
7:15 PM,39.2,30.2,70,30.04,10.0,Calm,Calm,-,N/A,,Clear,0,2012-11-30 01:15:00
7:35 PM,35.6,26.6,70,30.04,10.0,Calm,Calm,-,N/A,,Clear,0,2012-11-30 01:35:00
7:55 PM,35.6,28.4,75,30.03,10.0,Calm,Calm,-,N/A,,Clear,0,2012-11-30 01:55:00
8:15 PM,35.6,28.4,75,30.03,10.0,Calm,Calm,-,N/A,,Clear,0,2012-11-30 02:15:00
8:35 PM,37.4,30.2,75,30.03,10.0,Calm,Calm,-,N/A,,Clear,0,2012-11-30 02:35:00
8:55 PM,35.6,28.4,75,30.02,10.0,Calm,Calm,-,N/A,,Clear,0,2012-11-30 02:55:00
9:15 PM,33.8,26.6,75,30.02,10.0,Calm,Calm,-,N/A,,Clear,0,2012-11-30 03:15:00
9:35 PM,35.6,28.4,75,30.02,10.0,Calm,Calm,-,N/A,,Clear,0,2012-11-30 03:35:00
9:55 PM,33.8,28.4,81,30.02,10.0,Calm,Calm,-,N/A,,Clear,0,2012-11-30 03:55:00
10:15 PM,33.8,28.4,81,30.03,10.0,Calm,Calm,-,N/A,,Clear,0,2012-11-30 04:15:00
10:35 PM,33.8,28.4,81,30.02,10.0,Calm,Calm,-,N/A,,Clear,0,2012-11-30 04:35:00
10:55 PM,33.8,28.4,81,30.02,10.0,Calm,Calm,-,N/A,,Scattered Clouds,0,2012-11-30 04:55:00
11:15 PM,33.8,26.6,75,30.02,10.0,Calm,Calm,-,N/A,,Overcast,0,2012-11-30 05:15:00
11:35 PM,33.8,26.6,75,30.02,10.0,Calm,Calm,-,N/A,,Overcast,0,2012-11-30 05:35:00
11:55 PM,33.8,26.6,75,30.02,10.0,Calm,Calm,-,N/A,,Scattered Clouds,0,2012-11-30 05:55:00